CheckWX is a tool to help pilots better visualize weather data.  It is not intended as a substitute for an official pre-flight weather briefing.

21:30:34 UTC

CYHE METAR
Hope Airport
Hope, Canada
Current

31 mins ago

CYHE 232100Z AUTO 12008KT 9SM FEW060 SCT076 BKN091 03/00 A3012 RMK SLP204
Observed
Feb-23 @ 21:00 UTC
Wind
  • 120° at 8 KTS
Visibility
9 SM
Flight Rules
VFR
Cloud Levels
  • Few at 6,000' AGL
  • Scattered at 7,600' AGL
  • Broken at 9,100' AGL
Temperature
C / 37°F
Dewpoint
C / 32°F
Humidity
81%
Altimeter
30.12" Hg
Pressure
1020.4 hPa
Previous

2 hours ago

CYHE 232000Z AUTO 10003KT 010V160 9SM OVC055 02/00 A3014 RMK SLP208
Observed
Feb-23 @ 20:00 UTC
Wind
  • 100° at 3 KTS
Visibility
9 SM
Flight Rules
VFR
Cloud Levels
  • Overcast at 5,500' AGL
Temperature
C / 36°F
Dewpoint
C / 32°F
Humidity
87%
Altimeter
30.14" Hg
Pressure
1020.8 hPa
Previous

3 hours ago

CYHE 231900Z AUTO 10008KT 9SM OVC070 02/00 A3013 RMK SLP206
Observed
Feb-23 @ 19:00 UTC
Wind
  • 100° at 8 KTS
Visibility
9 SM
Flight Rules
VFR
Cloud Levels
  • Overcast at 7,000' AGL
Temperature
C / 36°F
Dewpoint
C / 32°F
Humidity
87%
Altimeter
30.13" Hg
Pressure
1020.6 hPa